createdAt,value
2023-04-28T00:00:19.125Z,3.67
2023-04-28T00:02:48.005Z,3.70
2023-04-28T00:05:14.749Z,3.70
2023-04-28T00:07:41.312Z,3.77
2023-04-28T00:10:08.456Z,3.57
2023-04-28T00:12:35.070Z,3.80
2023-04-28T00:15:03.813Z,3.33
2023-04-28T00:17:31.006Z,3.60
2023-04-28T00:19:57.681Z,3.40
2023-04-28T00:22:24.099Z,3.37
2023-04-28T00:24:50.723Z,3.27
2023-04-28T00:27:17.866Z,3.30
2023-04-28T00:29:44.348Z,3.40
2023-04-28T00:32:10.895Z,3.07
2023-04-28T00:34:37.367Z,2.93
2023-04-28T00:37:04.468Z,3.13
2023-04-28T00:39:30.873Z,3.40
2023-04-28T00:41:57.750Z,3.27
2023-04-28T00:44:24.152Z,3.40
2023-04-28T00:46:50.768Z,3.33
2023-04-28T00:49:17.164Z,3.10
2023-04-28T00:51:43.683Z,3.30
2023-04-28T00:54:14.420Z,3.13
2023-04-28T00:56:41.109Z,3.03
2023-04-28T00:59:07.613Z,3.47
2023-04-28T01:01:35.103Z,3.00
2023-04-28T01:04:02.526Z,3.60
2023-04-28T01:06:30.768Z,3.53
2023-04-28T01:08:59.924Z,3.43
2023-04-28T01:11:26.680Z,3.50
2023-04-28T01:14:03.658Z,3.40
2023-04-28T01:16:35.473Z,3.20
2023-04-28T01:19:02.876Z,3.53
2023-04-28T01:21:34.481Z,3.50
2023-04-28T01:24:09.397Z,3.30
2023-04-28T01:26:35.913Z,3.47
2023-04-28T01:29:02.503Z,3.27
2023-04-28T01:31:33.025Z,4.10
2023-04-28T01:34:00.206Z,3.50
2023-04-28T01:36:28.464Z,3.77
2023-04-28T01:38:55.382Z,3.30
2023-04-28T01:41:22.324Z,3.73
2023-04-28T01:43:49.031Z,4.10
2023-04-28T01:46:15.636Z,3.50
2023-04-28T01:48:42.189Z,3.90
2023-04-28T01:51:08.599Z,4.10
2023-04-28T01:53:38.177Z,3.97
2023-04-28T01:56:04.820Z,3.80
2023-04-28T01:58:31.385Z,4.40
2023-04-28T02:00:58.638Z,4.10
2023-04-28T02:03:25.573Z,4.00
2023-04-28T02:05:52.350Z,4.30
2023-04-28T02:08:18.807Z,4.03
2023-04-28T02:10:45.522Z,3.93
2023-04-28T02:13:12.092Z,4.23
2023-04-28T02:15:42.690Z,3.80
2023-04-28T02:18:10.437Z,3.83
2023-04-28T02:20:39.659Z,3.97
2023-04-28T02:23:07.835Z,3.70
2023-04-28T02:25:34.472Z,4.30
2023-04-28T02:28:00.940Z,4.40
2023-04-28T02:30:27.462Z,4.67
2023-04-28T02:32:55.736Z,4.83
2023-04-28T02:35:22.164Z,4.40
2023-04-28T02:37:48.954Z,4.90
2023-04-28T02:40:15.444Z,4.77
2023-04-28T02:42:41.895Z,4.33
2023-04-28T02:45:08.485Z,5.03
2023-04-28T02:47:34.963Z,4.40
2023-04-28T02:50:02.802Z,4.60
2023-04-28T02:52:29.309Z,4.17
2023-04-28T02:54:57.448Z,4.40
2023-04-28T02:57:24.992Z,4.50
2023-04-28T02:59:51.433Z,4.50
2023-04-28T03:02:18.026Z,4.80
2023-04-28T03:04:44.499Z,4.30
2023-04-28T03:07:11.333Z,4.77
2023-04-28T03:09:37.806Z,4.63
2023-04-28T03:12:04.470Z,4.70
2023-04-28T03:14:32.492Z,5.03
2023-04-28T03:16:59.038Z,4.70
2023-04-28T03:19:26.461Z,4.60
2023-04-28T03:21:53.042Z,5.10
2023-04-28T03:24:19.463Z,5.03
2023-04-28T03:26:46.022Z,4.47
2023-04-28T03:29:12.598Z,4.90
2023-04-28T03:31:39.128Z,4.63
2023-04-28T03:34:05.792Z,4.83
2023-04-28T03:36:33.043Z,4.67
2023-04-28T03:39:07.562Z,4.90
2023-04-28T03:41:34.340Z,5.10
2023-04-28T03:44:26.789Z,5.13
2023-04-28T03:46:53.325Z,5.17
2023-04-28T03:49:19.697Z,4.80
2023-04-28T03:51:46.607Z,5.00
2023-04-28T03:54:13.540Z,4.77
2023-04-28T03:56:41.340Z,4.80
2023-04-28T03:59:07.837Z,4.60
2023-04-28T04:01:34.464Z,5.03
2023-04-28T04:04:01.324Z,5.10
2023-04-28T04:06:27.984Z,4.93
2023-04-28T04:08:54.757Z,5.30
2023-04-28T04:11:21.231Z,4.83
2023-04-28T04:13:47.902Z,4.83
2023-04-28T04:16:16.689Z,4.50
2023-04-28T04:18:43.218Z,4.60
2023-04-28T04:21:16.256Z,5.20
2023-04-28T04:23:42.651Z,5.67
2023-04-28T04:26:09.171Z,5.03
2023-04-28T04:28:36.413Z,4.63
2023-04-28T04:31:05.024Z,4.60
2023-04-28T04:33:32.041Z,5.30
2023-04-28T04:35:58.758Z,5.03
2023-04-28T04:38:25.357Z,4.93
2023-04-28T04:40:53.408Z,5.13
2023-04-28T04:43:19.888Z,5.00
2023-04-28T04:45:49.523Z,4.53
2023-04-28T04:48:16.847Z,4.70
2023-04-28T04:50:44.420Z,4.77
2023-04-28T04:53:14.686Z,5.13
2023-04-28T04:55:43.257Z,4.93
2023-04-28T04:58:09.974Z,5.23
2023-04-28T05:00:42.261Z,5.30
2023-04-28T05:03:10.527Z,5.13
2023-04-28T05:05:40.023Z,4.70
2023-04-28T05:08:13.026Z,5.20
2023-04-28T05:10:40.327Z,5.43
2023-04-28T05:13:07.231Z,5.40
2023-04-28T05:15:33.986Z,4.97
2023-04-28T05:18:14.857Z,5.53
2023-04-28T05:20:41.352Z,5.20
2023-04-28T05:23:08.059Z,5.07
2023-04-28T05:25:34.720Z,4.93
2023-04-28T05:28:07.200Z,4.63
2023-04-28T05:30:34.223Z,5.00
2023-04-28T05:33:01.059Z,5.03
2023-04-28T05:35:27.808Z,4.97
2023-04-28T05:37:54.261Z,5.80
2023-04-28T05:40:20.953Z,5.20
2023-04-28T05:42:47.417Z,5.57
2023-04-28T05:45:14.277Z,5.47
2023-04-28T05:47:41.308Z,5.27
2023-04-28T05:50:08.259Z,5.77
2023-04-28T05:52:34.836Z,5.47
2023-04-28T05:55:02.419Z,5.17
2023-04-28T05:57:31.978Z,5.70
2023-04-28T06:00:00.680Z,5.70
2023-04-28T06:02:28.171Z,5.20
2023-04-28T06:04:56.206Z,5.67
2023-04-28T06:07:22.947Z,5.27
2023-04-28T06:09:49.870Z,5.77
2023-04-28T06:12:16.595Z,6.03
2023-04-28T06:14:43.005Z,5.70
2023-04-28T06:17:09.499Z,5.60
2023-04-28T06:19:36.111Z,5.73
2023-04-28T06:22:02.646Z,5.53
2023-04-28T06:24:29.409Z,6.47
2023-04-28T06:26:57.778Z,5.97
2023-04-28T06:29:24.222Z,5.80
2023-04-28T06:31:52.805Z,5.97
2023-04-28T06:34:19.456Z,6.43
2023-04-28T06:36:45.982Z,5.67
2023-04-28T06:39:12.769Z,6.20
2023-04-28T06:41:39.295Z,6.27
2023-04-28T06:44:05.953Z,6.10
2023-04-28T06:46:34.222Z,6.20
2023-04-28T06:49:00.886Z,6.00
2023-04-28T06:51:28.733Z,6.60
2023-04-28T06:53:55.648Z,6.37
2023-04-28T06:56:22.157Z,6.63
2023-04-28T06:58:48.612Z,6.70
2023-04-28T07:01:15.132Z,6.53
2023-04-28T07:03:41.666Z,6.70
2023-04-28T07:06:08.574Z,7.10
2023-04-28T07:08:35.802Z,6.77
2023-04-28T07:11:06.239Z,7.33
2023-04-28T07:13:33.296Z,7.37
2023-04-28T07:15:59.864Z,7.23
2023-04-28T07:18:26.413Z,7.23
2023-04-28T07:20:53.146Z,7.17
2023-04-28T07:23:19.575Z,6.67
2023-04-28T07:25:45.980Z,7.10
2023-04-28T07:28:13.788Z,7.17
2023-04-28T07:30:40.398Z,6.80
2023-04-28T07:33:06.874Z,7.83
2023-04-28T07:35:33.498Z,7.17
2023-04-28T07:38:00.003Z,7.23
2023-04-28T07:40:27.482Z,7.00
2023-04-28T07:42:54.247Z,7.57
2023-04-28T07:45:20.873Z,7.17
2023-04-28T07:47:47.304Z,7.90
2023-04-28T07:50:13.836Z,7.60
2023-04-28T07:52:40.478Z,7.70
2023-04-28T07:55:07.464Z,7.53
2023-04-28T07:57:33.969Z,7.83
2023-04-28T08:00:00.787Z,8.07
2023-04-28T08:02:38.344Z,7.53
2023-04-28T08:05:07.012Z,7.60
2023-04-28T08:07:33.590Z,8.20
2023-04-28T08:10:01.056Z,8.40
2023-04-28T08:12:27.580Z,8.13
2023-04-28T08:14:54.051Z,8.50
2023-04-28T08:17:20.463Z,8.27
2023-04-28T08:19:47.491Z,7.73
2023-04-28T08:22:13.971Z,7.37
2023-04-28T08:24:40.590Z,7.93
2023-04-28T08:27:07.259Z,7.80
2023-04-28T08:29:33.831Z,8.10
2023-04-28T08:32:02.332Z,7.97
2023-04-28T08:34:29.290Z,8.03
2023-04-28T08:36:55.827Z,7.93
2023-04-28T08:39:23.502Z,7.30
2023-04-28T08:41:50.594Z,7.63
2023-04-28T08:44:17.735Z,8.03
2023-04-28T08:46:46.182Z,8.40
2023-04-28T08:49:17.903Z,8.17
2023-04-28T08:51:47.692Z,8.50
2023-04-28T08:54:29.545Z,8.70
2023-04-28T08:56:57.618Z,8.30
2023-04-28T08:59:24.515Z,8.17
2023-04-28T09:01:51.424Z,8.80
2023-04-28T09:04:19.002Z,8.70
2023-04-28T09:06:46.462Z,7.63
2023-04-28T09:09:22.894Z,8.73
2023-04-28T09:12:01.208Z,8.60
2023-04-28T09:14:29.402Z,8.77
2023-04-28T09:16:56.680Z,9.00
2023-04-28T09:19:23.585Z,8.20
2023-04-28T09:21:53.085Z,8.40
2023-04-28T09:24:26.955Z,8.80
2023-04-28T09:26:55.474Z,8.63
2023-04-28T09:29:22.680Z,8.60
2023-04-28T09:31:49.451Z,9.00
2023-04-28T09:34:16.207Z,9.20
2023-04-28T09:36:42.989Z,8.97
2023-04-28T09:39:09.484Z,8.80
2023-04-28T09:41:41.475Z,9.03
2023-04-28T09:44:19.702Z,8.43
2023-04-28T09:46:47.036Z,9.57
2023-04-28T09:49:14.203Z,9.67
2023-04-28T09:51:41.439Z,8.63
2023-04-28T09:54:08.035Z,8.77
2023-04-28T09:56:40.877Z,9.13
2023-04-28T09:59:08.054Z,9.10
2023-04-28T10:01:40.977Z,8.00
2023-04-28T10:04:09.274Z,9.23
2023-04-28T10:06:36.762Z,8.37
2023-04-28T10:09:03.862Z,8.77
2023-04-28T10:11:30.798Z,9.53
2023-04-28T10:13:57.285Z,9.27
2023-04-28T10:16:24.499Z,9.20
2023-04-28T10:18:52.744Z,9.97
2023-04-28T10:21:22.434Z,9.03
2023-04-28T10:24:15.003Z,9.43
2023-04-28T10:27:05.521Z,9.43
2023-04-28T10:29:36.121Z,9.53
2023-04-28T10:32:19.254Z,9.50
2023-04-28T10:34:45.881Z,9.33
2023-04-28T10:37:14.904Z,9.23
2023-04-28T10:40:02.568Z,9.53
2023-04-28T10:42:51.610Z,9.30
2023-04-28T10:45:56.202Z,9.33
2023-04-28T10:48:49.273Z,9.23
2023-04-28T10:51:15.722Z,8.77
2023-04-28T10:53:45.473Z,9.83
2023-04-28T10:56:13.077Z,10.23
2023-04-28T10:58:44.967Z,9.07
2023-04-28T11:01:21.555Z,9.07
2023-04-28T11:04:08.512Z,9.13
2023-04-28T11:06:42.309Z,9.30
2023-04-28T11:09:14.973Z,9.40
2023-04-28T11:12:10.705Z,9.80
2023-04-28T11:14:40.239Z,9.60
2023-04-28T11:17:13.208Z,8.83
2023-04-28T11:19:45.272Z,9.83
2023-04-28T11:22:16.845Z,11.03
2023-04-28T11:25:04.060Z,10.37
2023-04-28T11:27:32.790Z,9.50
2023-04-28T11:30:00.179Z,9.87
2023-04-28T11:32:33.841Z,10.87
2023-04-28T11:35:02.444Z,10.30
2023-04-28T11:37:28.810Z,9.80
2023-04-28T11:39:55.356Z,9.27
2023-04-28T11:42:21.826Z,10.00
2023-04-28T11:44:52.847Z,9.43
2023-04-28T11:47:30.178Z,11.20
2023-04-28T11:49:56.982Z,9.67
2023-04-28T11:52:23.668Z,9.43
2023-04-28T11:54:55.388Z,9.27
2023-04-28T11:57:23.317Z,9.63
2023-04-28T11:59:50.787Z,10.23
2023-04-28T12:02:29.110Z,10.27
2023-04-28T12:04:56.333Z,10.27
2023-04-28T12:07:23.607Z,10.07
2023-04-28T12:10:13.036Z,10.30
2023-04-28T12:12:50.619Z,9.93
2023-04-28T12:15:20.802Z,10.60
2023-04-28T12:17:48.692Z,10.63
2023-04-28T12:20:39.305Z,9.97
2023-04-28T12:23:07.935Z,11.40
2023-04-28T12:25:43.599Z,10.90
2023-04-28T12:28:10.674Z,12.73
2023-04-28T12:30:43.941Z,10.80
2023-04-28T12:33:27.414Z,11.63
2023-04-28T12:35:55.150Z,10.93
2023-04-28T12:38:22.285Z,10.60
2023-04-28T12:40:48.874Z,10.87
2023-04-28T12:43:15.451Z,10.00
2023-04-28T12:45:41.962Z,11.23
2023-04-28T12:48:08.405Z,10.83
2023-04-28T12:50:35.325Z,10.43
2023-04-28T12:53:02.460Z,9.87
2023-04-28T12:55:29.365Z,10.50
2023-04-28T12:57:55.825Z,10.53
2023-04-28T13:00:23.206Z,10.90
2023-04-28T13:02:50.037Z,10.80
2023-04-28T13:05:16.824Z,11.10
2023-04-28T13:07:43.285Z,10.83
2023-04-28T13:10:10.233Z,11.17
2023-04-28T13:12:36.757Z,10.60
2023-04-28T13:15:04.115Z,11.23
2023-04-28T13:17:30.716Z,10.70
2023-04-28T13:19:57.187Z,10.83
2023-04-28T13:22:23.603Z,11.60
2023-04-28T13:24:50.670Z,11.40
2023-04-28T13:27:17.272Z,11.47
2023-04-28T13:29:43.680Z,11.43
2023-04-28T13:32:10.490Z,12.00
2023-04-28T13:34:38.071Z,11.03
2023-04-28T13:37:04.569Z,11.63
2023-04-28T13:39:31.589Z,11.10
2023-04-28T13:41:58.045Z,12.17
2023-04-28T13:44:24.522Z,11.37
2023-04-28T13:46:51.163Z,12.00
2023-04-28T13:49:17.766Z,12.47
2023-04-28T13:51:45.592Z,12.33
2023-04-28T13:54:12.229Z,12.80
2023-04-28T13:56:38.652Z,12.93
2023-04-28T13:59:05.181Z,13.33
2023-04-28T14:01:31.706Z,12.67
2023-04-28T14:03:58.328Z,13.00
2023-04-28T14:06:25.034Z,14.00
2023-04-28T14:08:52.521Z,12.37
2023-04-28T14:11:18.916Z,12.80
2023-04-28T14:13:45.367Z,12.37
2023-04-28T14:16:11.983Z,13.33
2023-04-28T14:18:38.631Z,13.80
2023-04-28T14:21:08.021Z,13.10
2023-04-28T14:23:35.609Z,12.67
2023-04-28T14:26:02.744Z,13.87
2023-04-28T14:28:29.279Z,11.63
2023-04-28T14:30:55.963Z,11.40
2023-04-28T14:33:22.394Z,12.07
2023-04-28T14:35:48.805Z,11.43
2023-04-28T14:38:15.264Z,10.17
2023-04-28T14:40:42.948Z,9.57
2023-04-28T14:43:09.481Z,10.10
2023-04-28T14:45:37.502Z,9.87
2023-04-28T14:48:04.310Z,10.00
2023-04-28T14:50:30.813Z,10.10
2023-04-28T14:53:00.234Z,10.10
2023-04-28T14:55:28.030Z,9.77
2023-04-28T14:57:54.651Z,9.93
2023-04-28T15:00:21.038Z,10.00
2023-04-28T15:02:47.718Z,9.07
2023-04-28T15:05:14.174Z,8.83
2023-04-28T15:07:40.826Z,9.27
2023-04-28T15:10:07.917Z,9.57
2023-04-28T15:12:35.369Z,9.10
2023-04-28T15:15:02.499Z,9.57
2023-04-28T15:17:29.067Z,9.33
2023-04-28T15:19:55.685Z,10.70
2023-04-28T15:22:22.097Z,9.33
2023-04-28T15:24:48.887Z,10.53
2023-04-28T15:27:15.629Z,10.37
2023-04-28T15:29:42.098Z,9.93
2023-04-28T15:32:08.640Z,9.60
2023-04-28T15:34:35.365Z,10.57
2023-04-28T15:37:39.259Z,10.20
2023-04-28T15:40:06.303Z,9.73
2023-04-28T15:42:32.910Z,11.07
2023-04-28T15:44:59.677Z,10.87
2023-04-28T15:47:26.100Z,10.90
2023-04-28T15:49:52.690Z,11.30
2023-04-28T15:52:19.195Z,11.57
2023-04-28T15:54:46.471Z,12.30
2023-04-28T15:57:12.878Z,13.07
2023-04-28T15:59:39.392Z,11.63
2023-04-28T16:02:06.519Z,11.83
2023-04-28T16:04:33.222Z,13.30
2023-04-28T16:07:02.542Z,13.00
2023-04-28T16:09:29.708Z,12.80
2023-04-28T16:11:59.273Z,13.07
2023-04-28T16:14:26.801Z,13.47
2023-04-28T16:16:53.242Z,13.53
2023-04-28T16:19:19.686Z,14.10
2023-04-28T16:21:46.138Z,13.67
2023-04-28T16:24:12.874Z,13.43
2023-04-28T16:26:39.274Z,12.97
2023-04-28T16:29:05.911Z,14.30
2023-04-28T16:31:33.853Z,14.00
2023-04-28T16:34:00.477Z,14.60
2023-04-28T16:36:33.131Z,13.33
2023-04-28T16:38:59.603Z,14.57
2023-04-28T16:41:26.083Z,14.83
2023-04-28T16:43:52.853Z,15.20
2023-04-28T16:46:19.316Z,14.17
2023-04-28T16:48:45.748Z,14.30
2023-04-28T16:51:12.255Z,14.07
2023-04-28T16:53:39.127Z,14.70
2023-04-28T16:56:10.247Z,14.50
2023-04-28T16:58:37.141Z,14.50
2023-04-28T17:01:03.865Z,14.43
2023-04-28T17:03:30.895Z,15.00
2023-04-28T17:05:57.490Z,14.17
2023-04-28T17:08:23.940Z,14.13
2023-04-28T17:10:50.633Z,15.17
2023-04-28T17:13:17.010Z,15.37
2023-04-28T17:15:43.677Z,14.37
2023-04-28T17:18:10.109Z,14.00
2023-04-28T17:20:38.137Z,15.07
2023-04-28T17:23:04.610Z,15.87
2023-04-28T17:25:31.412Z,14.87
2023-04-28T17:27:59.521Z,15.10
2023-04-28T17:30:26.086Z,15.53
2023-04-28T17:32:52.718Z,16.13
2023-04-28T17:35:19.211Z,15.13
2023-04-28T17:37:45.762Z,14.93
2023-04-28T17:40:12.910Z,14.67
2023-04-28T17:42:39.336Z,14.80
2023-04-28T17:45:07.352Z,15.17
2023-04-28T17:47:34.067Z,15.47
2023-04-28T17:50:00.616Z,14.63
2023-04-28T17:52:27.521Z,16.37
2023-04-28T17:54:54.297Z,15.57
2023-04-28T17:57:21.209Z,16.93
2023-04-28T17:59:51.027Z,17.23
2023-04-28T18:02:20.331Z,17.43
2023-04-28T18:04:46.921Z,17.30
2023-04-28T18:07:13.370Z,17.10
2023-04-28T18:09:39.802Z,16.90
2023-04-28T18:12:06.912Z,16.27
2023-04-28T18:14:33.918Z,16.50
2023-04-28T18:17:00.422Z,16.87
2023-04-28T18:19:28.541Z,16.67
2023-04-28T18:21:56.683Z,17.50
2023-04-28T18:24:24.217Z,17.60
2023-04-28T18:26:50.719Z,17.13
2023-04-28T18:29:18.709Z,17.97
2023-04-28T18:31:45.520Z,17.50
2023-04-28T18:34:12.048Z,17.17
2023-04-28T18:36:38.452Z,17.97
2023-04-28T18:39:06.178Z,16.37
2023-04-28T18:41:34.516Z,17.63
2023-04-28T18:44:01.940Z,17.87
2023-04-28T18:46:29.270Z,17.77
2023-04-28T18:48:56.380Z,19.23
2023-04-28T18:51:22.889Z,19.27
2023-04-28T18:53:49.563Z,19.47
2023-04-28T18:56:16.557Z,20.67
2023-04-28T18:58:42.945Z,21.13
2023-04-28T19:01:13.997Z,19.30
2023-04-28T19:03:40.727Z,21.07
2023-04-28T19:06:07.407Z,21.77
2023-04-28T19:08:33.995Z,20.40
2023-04-28T19:11:00.508Z,21.63
2023-04-28T19:13:26.896Z,21.37
2023-04-28T19:15:57.023Z,23.70
2023-04-28T19:18:23.457Z,20.77
2023-04-28T19:20:52.454Z,23.60
2023-04-28T19:23:18.900Z,24.63
2023-04-28T19:25:45.514Z,22.53
2023-04-28T19:28:11.922Z,23.50
2023-04-28T19:30:38.426Z,23.73
2023-04-28T19:33:04.914Z,21.80
2023-04-28T19:35:31.583Z,21.73
2023-04-28T19:37:58.114Z,24.23
2023-04-28T19:40:26.162Z,24.80
2023-04-28T19:42:52.840Z,23.43
2023-04-28T19:45:19.215Z,24.33
2023-04-28T19:47:45.668Z,25.70
2023-04-28T19:50:12.279Z,23.87
2023-04-28T19:52:38.718Z,22.57
2023-04-28T19:55:06.221Z,26.53
2023-04-28T19:57:32.736Z,24.10
2023-04-28T19:59:59.406Z,25.53
2023-04-28T20:02:26.414Z,25.40
2023-04-28T20:04:53.039Z,24.87
2023-04-28T20:07:19.589Z,26.57
2023-04-28T20:09:46.184Z,26.47
2023-04-28T20:12:12.634Z,26.83
2023-04-28T20:14:39.035Z,26.13
2023-04-28T20:17:07.371Z,26.63
2023-04-28T20:19:34.830Z,24.97
2023-04-28T20:22:07.666Z,27.00
2023-04-28T20:24:35.240Z,28.37
2023-04-28T20:27:03.721Z,27.23
2023-04-28T20:29:34.218Z,27.37
2023-04-28T20:32:02.774Z,27.27
2023-04-28T20:34:29.374Z,25.57
2023-04-28T20:36:57.910Z,26.63
2023-04-28T20:39:24.301Z,25.27
2023-04-28T20:41:51.580Z,23.57
2023-04-28T20:44:18.340Z,23.90
2023-04-28T20:46:45.374Z,22.03
2023-04-28T20:49:12.493Z,18.43
2023-04-28T20:51:45.010Z,17.60
2023-04-28T20:54:13.717Z,16.80
2023-04-28T20:56:41.861Z,17.17
2023-04-28T20:59:08.437Z,15.17
2023-04-28T21:01:34.890Z,14.73
2023-04-28T21:04:03.430Z,14.47
2023-04-28T21:06:29.938Z,14.00
2023-04-28T21:08:56.376Z,13.80
2023-04-28T21:11:22.791Z,14.97
2023-04-28T21:13:50.601Z,11.93
2023-04-28T21:16:20.875Z,12.90
2023-04-28T21:18:48.972Z,12.20
2023-04-28T21:21:15.739Z,12.10
2023-04-28T21:23:42.670Z,11.87
2023-04-28T21:26:10.077Z,11.40
2023-04-28T21:28:37.088Z,11.47
2023-04-28T21:31:04.372Z,12.80
2023-04-28T21:33:32.114Z,12.17
2023-04-28T21:35:58.554Z,11.87
2023-04-28T21:38:25.800Z,13.30
2023-04-28T21:40:52.458Z,12.97
2023-04-28T21:43:19.920Z,12.63
2023-04-28T21:45:46.552Z,12.73
2023-04-28T21:48:13.128Z,12.80
2023-04-28T21:50:39.803Z,12.00
2023-04-28T21:53:06.241Z,12.13
2023-04-28T21:55:32.762Z,13.23
2023-04-28T21:58:00.468Z,12.70
2023-04-28T22:00:27.965Z,12.97
2023-04-28T22:02:56.263Z,12.07
2023-04-28T22:05:24.680Z,12.23
2023-04-28T22:07:52.096Z,12.83
2023-04-28T22:10:19.212Z,13.17
2023-04-28T22:12:47.790Z,13.23
2023-04-28T22:15:14.278Z,12.97
2023-04-28T22:17:40.783Z,12.83
2023-04-28T22:20:08.474Z,14.27
2023-04-28T22:22:35.029Z,13.60
2023-04-28T22:25:02.049Z,13.23
2023-04-28T22:27:30.284Z,13.80
2023-04-28T22:29:58.534Z,14.93
2023-04-28T22:32:26.102Z,15.60
2023-04-28T22:34:53.014Z,14.63
2023-04-28T22:37:19.495Z,15.17
2023-04-28T22:39:45.887Z,15.23
2023-04-28T22:42:12.288Z,15.27
2023-04-28T22:44:38.677Z,14.67
2023-04-28T22:47:05.085Z,15.50
2023-04-28T22:49:31.776Z,16.57
2023-04-28T22:51:58.620Z,15.40
2023-04-28T22:54:25.065Z,17.50
2023-04-28T22:56:53.390Z,17.17
2023-04-28T22:59:19.992Z,17.43
2023-04-28T23:01:46.643Z,18.00
2023-04-28T23:04:13.391Z,18.37
2023-04-28T23:06:39.892Z,18.17
2023-04-28T23:09:06.970Z,18.73
2023-04-28T23:11:33.446Z,20.67
2023-04-28T23:13:59.950Z,23.07
2023-04-28T23:16:26.405Z,25.27
2023-04-28T23:18:53.013Z,26.23
2023-04-28T23:21:19.446Z,26.10
2023-04-28T23:23:46.256Z,26.80
2023-04-28T23:26:12.703Z,28.10
2023-04-28T23:28:39.106Z,28.57
2023-04-28T23:31:05.695Z,28.57
2023-04-28T23:33:32.224Z,29.27
2023-04-28T23:35:58.630Z,28.33
2023-04-28T23:38:26.275Z,29.70
2023-04-28T23:40:53.030Z,29.33
2023-04-28T23:43:19.488Z,32.17
2023-04-28T23:45:45.979Z,33.20
2023-04-28T23:48:12.481Z,34.73
2023-04-28T23:50:38.913Z,34.47
2023-04-28T23:53:05.342Z,33.37
2023-04-28T23:55:32.001Z,34.30
2023-04-28T23:57:58.493Z,34.83
